Kezdőlap
METAR-TAF:

METAR-TAF

Repülőterek :

Pratt Industrial Airport

Pratt, Kansas, Amerikai Egyesült Államok

földrajzi szélesség: 37-42N, földrajzi hosszúság: 098-45W, magasság: 595 m

Jelenlegi meteorológiai megfigyelések

A jelentés 20 perccel ezelõtt készült, 16:55 UTC
Dél-délnyugati szél 9 kt
Hőmérséklet 30°C
Páratartalom 62%
Légköri nyomás 1012 hPa
Látótávolság: 16.1 km
Derült ég

METAR: KPTT 251655Z AUTO 20009KT 10SM CLR 30/22 A2987 RMK AO2 T02950218

Idő: 12:15 (17:15 UTC)


TAF: hiányzik

Meteorológiai megfigyelések és előrejelzések több, mint 4000 repülőtéren (METAR és TAF jelentéseket).

A térképen piros és sárga pontok jelzik az elérhető meteorológiai állomásokat.

Mozgassa az egeret a pont fölött, hogy megjelenjen az állomás neve.

Azután kattintson az időjárási megfigyelések és előrejelzések megtekintéséhez.

A térkép megváltoztatása: kattintson a fekete keresztel jelölt zöld gombra ráközelítéshez, a vonallal jelölt zöld gombra távolításhoz, vagy a zöld nyilakra a szomszédos térképek eléréséhez.


METAR-TAF: